sensor_id;sensor_type;location;lat;lon;timestamp;temperature;humidity
3350;DHT22;1688;51.000;13.684;2022-08-30T00:01:36;16.90;99.90
3350;DHT22;1688;51.000;13.684;2022-08-30T00:04:02;17.00;99.90
3350;DHT22;1688;51.000;13.684;2022-08-30T00:06:28;17.00;99.90
3350;DHT22;1688;51.000;13.684;2022-08-30T00:08:55;16.90;99.90
3350;DHT22;1688;51.000;13.684;2022-08-30T00:11:24;17.00;99.90
3350;DHT22;1688;51.000;13.684;2022-08-30T00:13:52;17.00;99.90
3350;DHT22;1688;51.000;13.684;2022-08-30T00:16:20;17.00;99.90
3350;DHT22;1688;51.000;13.684;2022-08-30T00:18:47;17.10;99.90
3350;DHT22;1688;51.000;13.684;2022-08-30T00:21:12;17.00;99.90
3350;DHT22;1688;51.000;13.684;2022-08-30T00:23:39;17.00;99.90
3350;DHT22;1688;51.000;13.684;2022-08-30T00:26:06;16.90;99.90
3350;DHT22;1688;51.000;13.684;2022-08-30T00:28:32;16.90;99.90
3350;DHT22;1688;51.000;13.684;2022-08-30T00:30:59;16.90;99.90
3350;DHT22;1688;51.000;13.684;2022-08-30T00:33:27;16.90;99.90
3350;DHT22;1688;51.000;13.684;2022-08-30T00:35:54;16.80;99.90
3350;DHT22;1688;51.000;13.684;2022-08-30T00:38:21;16.80;99.90
3350;DHT22;1688;51.000;13.684;2022-08-30T00:40:49;16.80;99.90
3350;DHT22;1688;51.000;13.684;2022-08-30T00:43:24;16.70;99.90
3350;DHT22;1688;51.000;13.684;2022-08-30T00:45:50;16.70;99.90
3350;DHT22;1688;51.000;13.684;2022-08-30T00:48:16;16.70;99.90
3350;DHT22;1688;51.000;13.684;2022-08-30T00:50:46;16.70;99.90
3350;DHT22;1688;51.000;13.684;2022-08-30T00:53:16;16.80;99.90
3350;DHT22;1688;51.000;13.684;2022-08-30T00:55:43;16.70;99.90
3350;DHT22;1688;51.000;13.684;2022-08-30T00:58:13;16.80;99.90
3350;DHT22;1688;51.000;13.684;2022-08-30T01:00:45;16.70;99.90
3350;DHT22;1688;51.000;13.684;2022-08-30T01:03:10;16.70;99.90
3350;DHT22;1688;51.000;13.684;2022-08-30T01:05:37;16.80;99.90
3350;DHT22;1688;51.000;13.684;2022-08-30T01:08:04;16.80;99.90
3350;DHT22;1688;51.000;13.684;2022-08-30T01:10:33;16.80;99.90
3350;DHT22;1688;51.000;13.684;2022-08-30T01:12:59;16.80;99.90
3350;DHT22;1688;51.000;13.684;2022-08-30T01:15:26;16.80;99.90
3350;DHT22;1688;51.000;13.684;2022-08-30T01:17:51;16.70;99.90
3350;DHT22;1688;51.000;13.684;2022-08-30T01:20:26;16.70;99.90
3350;DHT22;1688;51.000;13.684;2022-08-30T01:23:07;16.70;99.90
3350;DHT22;1688;51.000;13.684;2022-08-30T01:25:35;16.70;99.90
3350;DHT22;1688;51.000;13.684;2022-08-30T01:28:10;16.70;99.90
3350;DHT22;1688;51.000;13.684;2022-08-30T01:30:36;16.60;99.90
3350;DHT22;1688;51.000;13.684;2022-08-30T01:33:08;16.60;99.90
3350;DHT22;1688;51.000;13.684;2022-08-30T01:35:48;16.60;99.90
3350;DHT22;1688;51.000;13.684;2022-08-30T01:38:16;16.60;99.90
3350;DHT22;1688;51.000;13.684;2022-08-30T01:40:43;16.60;99.90
3350;DHT22;1688;51.000;13.684;2022-08-30T01:43:11;16.50;99.90
3350;DHT22;1688;51.000;13.684;2022-08-30T01:45:37;16.50;99.90
3350;DHT22;1688;51.000;13.684;2022-08-30T01:48:05;16.60;99.90
3350;DHT22;1688;51.000;13.684;2022-08-30T01:50:31;16.60;99.90
3350;DHT22;1688;51.000;13.684;2022-08-30T01:52:58;16.60;99.90
3350;DHT22;1688;51.000;13.684;2022-08-30T01:55:24;16.60;99.90
3350;DHT22;1688;51.000;13.684;2022-08-30T01:57:49;16.60;99.90
3350;DHT22;1688;51.000;13.684;2022-08-30T02:00:16;16.70;99.90
3350;DHT22;1688;51.000;13.684;2022-08-30T02:02:42;16.70;99.90
3350;DHT22;1688;51.000;13.684;2022-08-30T02:05:09;16.70;99.90
3350;DHT22;1688;51.000;13.684;2022-08-30T02:07:35;16.70;99.90
3350;DHT22;1688;51.000;13.684;2022-08-30T02:10:01;16.70;99.90
3350;DHT22;1688;51.000;13.684;2022-08-30T02:12:27;16.70;99.90
3350;DHT22;1688;51.000;13.684;2022-08-30T02:14:53;16.70;99.90
3350;DHT22;1688;51.000;13.684;2022-08-30T02:17:19;16.70;99.90
3350;DHT22;1688;51.000;13.684;2022-08-30T02:19:45;16.70;99.90
3350;DHT22;1688;51.000;13.684;2022-08-30T02:22:11;16.70;99.90
3350;DHT22;1688;51.000;13.684;2022-08-30T02:24:37;16.70;99.90
3350;DHT22;1688;51.000;13.684;2022-08-30T02:27:03;16.70;99.90
3350;DHT22;1688;51.000;13.684;2022-08-30T02:29:29;16.70;99.90
3350;DHT22;1688;51.000;13.684;2022-08-30T02:31:55;16.70;99.90
3350;DHT22;1688;51.000;13.684;2022-08-30T02:34:21;16.70;99.90
3350;DHT22;1688;51.000;13.684;2022-08-30T02:36:47;16.70;99.90
3350;DHT22;1688;51.000;13.684;2022-08-30T02:39:13;16.70;99.90
3350;DHT22;1688;51.000;13.684;2022-08-30T02:41:40;16.60;99.90
3350;DHT22;1688;51.000;13.684;2022-08-30T02:44:07;16.60;99.90
3350;DHT22;1688;51.000;13.684;2022-08-30T02:46:33;16.50;99.90
3350;DHT22;1688;51.000;13.684;2022-08-30T02:48:59;16.50;99.90
3350;DHT22;1688;51.000;13.684;2022-08-30T02:51:25;16.40;99.90
3350;DHT22;1688;51.000;13.684;2022-08-30T02:53:51;16.40;99.90
3350;DHT22;1688;51.000;13.684;2022-08-30T02:56:17;16.40;99.90
3350;DHT22;1688;51.000;13.684;2022-08-30T02:58:43;16.30;99.90
3350;DHT22;1688;51.000;13.684;2022-08-30T03:01:11;16.30;99.90
3350;DHT22;1688;51.000;13.684;2022-08-30T03:03:38;16.30;99.90
3350;DHT22;1688;51.000;13.684;2022-08-30T03:06:05;16.20;99.90
3350;DHT22;1688;51.000;13.684;2022-08-30T03:08:31;16.20;99.90
3350;DHT22;1688;51.000;13.684;2022-08-30T03:10:58;16.30;99.90
3350;DHT22;1688;51.000;13.684;2022-08-30T03:13:26;16.20;99.90
3350;DHT22;1688;51.000;13.684;2022-08-30T03:15:52;16.30;99.90
3350;DHT22;1688;51.000;13.684;2022-08-30T03:18:19;16.30;99.90
3350;DHT22;1688;51.000;13.684;2022-08-30T03:20:46;16.30;99.90
3350;DHT22;1688;51.000;13.684;2022-08-30T03:23:12;16.30;99.90
3350;DHT22;1688;51.000;13.684;2022-08-30T03:25:37;16.30;99.90
3350;DHT22;1688;51.000;13.684;2022-08-30T03:28:05;16.20;99.90
3350;DHT22;1688;51.000;13.684;2022-08-30T03:30:32;16.20;99.90
3350;DHT22;1688;51.000;13.684;2022-08-30T03:32:58;16.10;99.90
3350;DHT22;1688;51.000;13.684;2022-08-30T03:35:24;16.10;99.90
3350;DHT22;1688;51.000;13.684;2022-08-30T03:37:50;16.10;99.90
3350;DHT22;1688;51.000;13.684;2022-08-30T03:40:17;16.10;99.90
3350;DHT22;1688;51.000;13.684;2022-08-30T03:42:44;16.10;99.90
3350;DHT22;1688;51.000;13.684;2022-08-30T03:45:11;16.10;99.90
3350;DHT22;1688;51.000;13.684;2022-08-30T03:47:37;16.10;99.90
3350;DHT22;1688;51.000;13.684;2022-08-30T03:50:04;16.10;99.90
3350;DHT22;1688;51.000;13.684;2022-08-30T03:52:30;16.10;99.90
3350;DHT22;1688;51.000;13.684;2022-08-30T03:54:56;16.10;99.90
3350;DHT22;1688;51.000;13.684;2022-08-30T03:57:21;16.00;99.90
3350;DHT22;1688;51.000;13.684;2022-08-30T03:59:47;16.00;99.90
3350;DHT22;1688;51.000;13.684;2022-08-30T04:02:13;15.90;99.90
3350;DHT22;1688;51.000;13.684;2022-08-30T04:04:39;15.80;99.90
3350;DHT22;1688;51.000;13.684;2022-08-30T04:07:05;15.80;99.90
3350;DHT22;1688;51.000;13.684;2022-08-30T04:09:30;15.90;99.90
3350;DHT22;1688;51.000;13.684;2022-08-30T04:11:56;15.90;99.90
3350;DHT22;1688;51.000;13.684;2022-08-30T04:14:22;15.90;99.90
3350;DHT22;1688;51.000;13.684;2022-08-30T04:16:48;15.90;99.90
3350;DHT22;1688;51.000;13.684;2022-08-30T04:19:14;15.90;99.90
3350;DHT22;1688;51.000;13.684;2022-08-30T04:21:40;16.00;99.90
3350;DHT22;1688;51.000;13.684;2022-08-30T04:24:05;16.00;99.90
3350;DHT22;1688;51.000;13.684;2022-08-30T04:26:31;16.00;99.90
3350;DHT22;1688;51.000;13.684;2022-08-30T04:28:57;16.00;99.90
3350;DHT22;1688;51.000;13.684;2022-08-30T04:31:24;16.00;99.90
3350;DHT22;1688;51.000;13.684;2022-08-30T04:33:52;16.10;99.90
3350;DHT22;1688;51.000;13.684;2022-08-30T04:36:18;16.10;99.90
3350;DHT22;1688;51.000;13.684;2022-08-30T04:38:44;16.00;99.90
3350;DHT22;1688;51.000;13.684;2022-08-30T04:41:12;16.00;99.90
3350;DHT22;1688;51.000;13.684;2022-08-30T04:43:44;16.00;99.90
3350;DHT22;1688;51.000;13.684;2022-08-30T04:46:12;16.10;99.90
3350;DHT22;1688;51.000;13.684;2022-08-30T04:48:41;16.10;99.90
3350;DHT22;1688;51.000;13.684;2022-08-30T04:51:10;16.10;99.90
3350;DHT22;1688;51.000;13.684;2022-08-30T04:53:36;16.20;99.90
3350;DHT22;1688;51.000;13.684;2022-08-30T04:56:14;16.20;99.90
3350;DHT22;1688;51.000;13.684;2022-08-30T04:58:47;16.30;99.90
3350;DHT22;1688;51.000;13.684;2022-08-30T05:01:17;16.30;99.90
3350;DHT22;1688;51.000;13.684;2022-08-30T05:03:47;16.20;99.90
3350;DHT22;1688;51.000;13.684;2022-08-30T05:06:14;16.20;99.90
3350;DHT22;1688;51.000;13.684;2022-08-30T05:08:39;16.30;99.90
3350;DHT22;1688;51.000;13.684;2022-08-30T05:11:06;16.30;99.90
3350;DHT22;1688;51.000;13.684;2022-08-30T05:13:32;16.40;99.90
3350;DHT22;1688;51.000;13.684;2022-08-30T05:15:59;16.40;99.90
3350;DHT22;1688;51.000;13.684;2022-08-30T05:18:25;16.50;99.90
3350;DHT22;1688;51.000;13.684;2022-08-30T05:23:31;16.60;99.90
3350;DHT22;1688;51.000;13.684;2022-08-30T05:25:57;16.60;99.90
3350;DHT22;1688;51.000;13.684;2022-08-30T05:28:23;16.70;99.90
3350;DHT22;1688;51.000;13.684;2022-08-30T05:30:49;16.70;99.90
3350;DHT22;1688;51.000;13.684;2022-08-30T05:33:14;16.70;99.90
3350;DHT22;1688;51.000;13.684;2022-08-30T05:35:40;16.80;99.90
3350;DHT22;1688;51.000;13.684;2022-08-30T05:38:07;16.80;99.90
3350;DHT22;1688;51.000;13.684;2022-08-30T05:40:32;16.90;99.90
3350;DHT22;1688;51.000;13.684;2022-08-30T05:42:58;16.90;99.90
3350;DHT22;1688;51.000;13.684;2022-08-30T05:45:24;17.00;99.90
3350;DHT22;1688;51.000;13.684;2022-08-30T05:47:50;17.00;99.90
3350;DHT22;1688;51.000;13.684;2022-08-30T05:50:16;17.10;99.90
3350;DHT22;1688;51.000;13.684;2022-08-30T05:52:42;17.20;99.90
3350;DHT22;1688;51.000;13.684;2022-08-30T05:55:12;17.20;99.90
3350;DHT22;1688;51.000;13.684;2022-08-30T05:57:39;17.30;99.90
3350;DHT22;1688;51.000;13.684;2022-08-30T06:00:12;17.50;99.90
3350;DHT22;1688;51.000;13.684;2022-08-30T06:02:39;17.60;99.90
3350;DHT22;1688;51.000;13.684;2022-08-30T06:05:07;17.60;99.90
3350;DHT22;1688;51.000;13.684;2022-08-30T06:07:33;17.70;99.90
3350;DHT22;1688;51.000;13.684;2022-08-30T06:09:59;17.90;99.90
3350;DHT22;1688;51.000;13.684;2022-08-30T06:12:25;17.90;99.90
3350;DHT22;1688;51.000;13.684;2022-08-30T06:14:51;18.00;99.90
3350;DHT22;1688;51.000;13.684;2022-08-30T06:17:17;18.10;99.90
3350;DHT22;1688;51.000;13.684;2022-08-30T06:19:42;18.00;99.90
3350;DHT22;1688;51.000;13.684;2022-08-30T06:22:08;18.00;99.90
3350;DHT22;1688;51.000;13.684;2022-08-30T06:24:34;18.10;99.90
3350;DHT22;1688;51.000;13.684;2022-08-30T06:27:04;18.10;99.90
3350;DHT22;1688;51.000;13.684;2022-08-30T06:29:29;18.10;99.90
3350;DHT22;1688;51.000;13.684;2022-08-30T06:31:56;18.10;99.90
3350;DHT22;1688;51.000;13.684;2022-08-30T06:34:22;18.10;99.90
3350;DHT22;1688;51.000;13.684;2022-08-30T06:36:48;18.10;99.90
3350;DHT22;1688;51.000;13.684;2022-08-30T06:39:14;18.20;99.90
3350;DHT22;1688;51.000;13.684;2022-08-30T06:41:41;18.30;99.90
3350;DHT22;1688;51.000;13.684;2022-08-30T06:44:07;18.50;99.90
3350;DHT22;1688;51.000;13.684;2022-08-30T06:46:35;18.70;99.90
3350;DHT22;1688;51.000;13.684;2022-08-30T06:49:03;20.10;99.90
3350;DHT22;1688;51.000;13.684;2022-08-30T06:51:32;23.10;99.90
3350;DHT22;1688;51.000;13.684;2022-08-30T06:53:58;26.40;99.90
3350;DHT22;1688;51.000;13.684;2022-08-30T06:56:25;28.70;96.30
3350;DHT22;1688;51.000;13.684;2022-08-30T06:58:51;30.70;93.30
3350;DHT22;1688;51.000;13.684;2022-08-30T07:01:23;33.00;86.00
3350;DHT22;1688;51.000;13.684;2022-08-30T07:03:50;34.90;77.20
3350;DHT22;1688;51.000;13.684;2022-08-30T07:06:16;36.40;68.10
3350;DHT22;1688;51.000;13.684;2022-08-30T07:08:43;36.60;62.10
3350;DHT22;1688;51.000;13.684;2022-08-30T07:11:10;35.60;61.90
3350;DHT22;1688;51.000;13.684;2022-08-30T07:13:36;33.70;62.90
3350;DHT22;1688;51.000;13.684;2022-08-30T07:16:10;31.70;67.70
3350;DHT22;1688;51.000;13.684;2022-08-30T07:18:36;29.70;72.90
3350;DHT22;1688;51.000;13.684;2022-08-30T07:23:52;27.40;81.30
3350;DHT22;1688;51.000;13.684;2022-08-30T07:26:23;26.20;84.60
3350;DHT22;1688;51.000;13.684;2022-08-30T07:28:51;25.00;90.20
3350;DHT22;1688;51.000;13.684;2022-08-30T07:31:18;24.20;93.00
3350;DHT22;1688;51.000;13.684;2022-08-30T07:33:45;23.50;95.10
3350;DHT22;1688;51.000;13.684;2022-08-30T07:36:11;23.10;96.60
3350;DHT22;1688;51.000;13.684;2022-08-30T07:38:37;22.60;99.90
3350;DHT22;1688;51.000;13.684;2022-08-30T07:41:04;22.20;99.90
3350;DHT22;1688;51.000;13.684;2022-08-30T07:43:31;21.80;99.90
3350;DHT22;1688;51.000;13.684;2022-08-30T07:46:06;21.70;99.90
3350;DHT22;1688;51.000;13.684;2022-08-30T07:48:33;21.50;99.90
3350;DHT22;1688;51.000;13.684;2022-08-30T07:51:00;21.40;99.90
3350;DHT22;1688;51.000;13.684;2022-08-30T07:53:26;21.30;99.90
3350;DHT22;1688;51.000;13.684;2022-08-30T07:55:53;21.20;99.90
3350;DHT22;1688;51.000;13.684;2022-08-30T07:58:19;21.10;99.90
3350;DHT22;1688;51.000;13.684;2022-08-30T08:00:45;21.10;99.90
3350;DHT22;1688;51.000;13.684;2022-08-30T08:03:11;21.00;99.90
3350;DHT22;1688;51.000;13.684;2022-08-30T08:05:43;20.80;99.90
3350;DHT22;1688;51.000;13.684;2022-08-30T08:08:10;20.70;99.90
3350;DHT22;1688;51.000;13.684;2022-08-30T08:10:38;20.70;99.90
3350;DHT22;1688;51.000;13.684;2022-08-30T08:13:04;20.80;99.90
3350;DHT22;1688;51.000;13.684;2022-08-30T08:15:31;21.00;99.90
3350;DHT22;1688;51.000;13.684;2022-08-30T08:17:56;21.10;99.90
3350;DHT22;1688;51.000;13.684;2022-08-30T08:20:22;21.10;99.90
3350;DHT22;1688;51.000;13.684;2022-08-30T08:22:50;21.10;99.90
3350;DHT22;1688;51.000;13.684;2022-08-30T08:25:17;21.10;99.90
3350;DHT22;1688;51.000;13.684;2022-08-30T08:27:46;21.30;99.90
3350;DHT22;1688;51.000;13.684;2022-08-30T08:30:13;21.50;99.90
3350;DHT22;1688;51.000;13.684;2022-08-30T08:32:40;21.50;99.90
3350;DHT22;1688;51.000;13.684;2022-08-30T08:35:06;21.50;99.90
3350;DHT22;1688;51.000;13.684;2022-08-30T08:37:32;21.60;99.90
3350;DHT22;1688;51.000;13.684;2022-08-30T08:39:57;21.70;99.90
3350;DHT22;1688;51.000;13.684;2022-08-30T08:45:28;22.30;99.90
3350;DHT22;1688;51.000;13.684;2022-08-30T08:48:06;22.80;99.90
3350;DHT22;1688;51.000;13.684;2022-08-30T08:50:33;23.10;99.90
3350;DHT22;1688;51.000;13.684;2022-08-30T08:53:08;23.40;99.90
3350;DHT22;1688;51.000;13.684;2022-08-30T08:55:56;23.20;99.90
3350;DHT22;1688;51.000;13.684;2022-08-30T08:58:40;22.80;99.90
3350;DHT22;1688;51.000;13.684;2022-08-30T09:01:07;22.70;99.90
3350;DHT22;1688;51.000;13.684;2022-08-30T09:03:38;23.00;99.90
3350;DHT22;1688;51.000;13.684;2022-08-30T09:09:09;23.60;99.90
3350;DHT22;1688;51.000;13.684;2022-08-30T09:11:36;23.60;99.90
3350;DHT22;1688;51.000;13.684;2022-08-30T09:14:09;23.80;99.90
3350;DHT22;1688;51.000;13.684;2022-08-30T09:16:52;24.00;99.90
3350;DHT22;1688;51.000;13.684;2022-08-30T09:19:28;24.10;99.60
3350;DHT22;1688;51.000;13.684;2022-08-30T09:22:18;24.30;99.60
3350;DHT22;1688;51.000;13.684;2022-08-30T09:25:04;24.60;99.00
3350;DHT22;1688;51.000;13.684;2022-08-30T09:30:02;24.70;99.00
3350;DHT22;1688;51.000;13.684;2022-08-30T09:32:38;24.90;98.90
3350;DHT22;1688;51.000;13.684;2022-08-30T09:35:10;25.00;97.90
3350;DHT22;1688;51.000;13.684;2022-08-30T09:37:51;25.10;97.10
3350;DHT22;1688;51.000;13.684;2022-08-30T09:40:25;25.40;98.00
3350;DHT22;1688;51.000;13.684;2022-08-30T09:43:23;25.60;97.10
3350;DHT22;1688;51.000;13.684;2022-08-30T09:54:20;24.40;96.40
3350;DHT22;1688;51.000;13.684;2022-08-30T09:59:42;24.50;97.10
3350;DHT22;1688;51.000;13.684;2022-08-30T10:05:46;24.20;94.90
3350;DHT22;1688;51.000;13.684;2022-08-30T10:19:09;24.30;96.10
3350;DHT22;1688;51.000;13.684;2022-08-30T10:21:42;24.50;95.60
3350;DHT22;1688;51.000;13.684;2022-08-30T10:24:13;24.70;96.30
3350;DHT22;1688;51.000;13.684;2022-08-30T10:27:08;25.10;94.60
3350;DHT22;1688;51.000;13.684;2022-08-30T10:29:49;25.50;94.40
3350;DHT22;1688;51.000;13.684;2022-08-30T10:32:30;24.90;93.30
3350;DHT22;1688;51.000;13.684;2022-08-30T10:35:12;24.40;94.80
3350;DHT22;1688;51.000;13.684;2022-08-30T10:38:17;23.90;95.70
3350;DHT22;1688;51.000;13.684;2022-08-30T10:40:39;23.60;95.80
3350;DHT22;1688;51.000;13.684;2022-08-30T10:46:04;23.30;94.80
3350;DHT22;1688;51.000;13.684;2022-08-30T10:48:43;23.60;93.60
3350;DHT22;1688;51.000;13.684;2022-08-30T10:51:14;23.80;95.50
3350;DHT22;1688;51.000;13.684;2022-08-30T10:53:48;23.90;94.90
3350;DHT22;1688;51.000;13.684;2022-08-30T10:56:19;23.90;95.60
3350;DHT22;1688;51.000;13.684;2022-08-30T10:58:47;23.70;96.70
3350;DHT22;1688;51.000;13.684;2022-08-30T11:06:50;24.50;96.10
3350;DHT22;1688;51.000;13.684;2022-08-30T11:15:15;24.10;94.90
3350;DHT22;1688;51.000;13.684;2022-08-30T11:17:54;24.00;96.50
3350;DHT22;1688;51.000;13.684;2022-08-30T11:20:34;24.10;95.70
3350;DHT22;1688;51.000;13.684;2022-08-30T11:25:54;23.50;96.20
3350;DHT22;1688;51.000;13.684;2022-08-30T11:33:53;23.60;95.30
3350;DHT22;1688;51.000;13.684;2022-08-30T11:38:59;24.30;95.70
3350;DHT22;1688;51.000;13.684;2022-08-30T11:46:48;24.40;93.20
3350;DHT22;1688;51.000;13.684;2022-08-30T11:54:56;24.70;92.40
3350;DHT22;1688;51.000;13.684;2022-08-30T12:00:38;24.40;91.70
3350;DHT22;1688;51.000;13.684;2022-08-30T12:03:29;24.40;91.80
3350;DHT22;1688;51.000;13.684;2022-08-30T12:06:03;24.50;92.40
3350;DHT22;1688;51.000;13.684;2022-08-30T12:11:06;25.50;92.00
3350;DHT22;1688;51.000;13.684;2022-08-30T12:13:52;25.80;90.60
3350;DHT22;1688;51.000;13.684;2022-08-30T12:16:42;25.30;90.40
3350;DHT22;1688;51.000;13.684;2022-08-30T12:19:29;24.90;91.10
3350;DHT22;1688;51.000;13.684;2022-08-30T12:21:59;24.40;91.80
3350;DHT22;1688;51.000;13.684;2022-08-30T12:24:33;24.00;92.80
3350;DHT22;1688;51.000;13.684;2022-08-30T12:27:01;23.70;92.70
3350;DHT22;1688;51.000;13.684;2022-08-30T12:29:56;23.60;93.30
3350;DHT22;1688;51.000;13.684;2022-08-30T12:32:24;23.40;93.10
3350;DHT22;1688;51.000;13.684;2022-08-30T12:37:22;23.20;93.40
3350;DHT22;1688;51.000;13.684;2022-08-30T12:42:31;23.20;93.70
3350;DHT22;1688;51.000;13.684;2022-08-30T12:45:00;23.30;92.80
3350;DHT22;1688;51.000;13.684;2022-08-30T12:47:32;23.50;92.00
3350;DHT22;1688;51.000;13.684;2022-08-30T12:50:04;23.70;92.50
3350;DHT22;1688;51.000;13.684;2022-08-30T12:52:39;23.70;92.30
3350;DHT22;1688;51.000;13.684;2022-08-30T12:55:21;23.80;92.10
3350;DHT22;1688;51.000;13.684;2022-08-30T12:58:08;24.10;93.00
3350;DHT22;1688;51.000;13.684;2022-08-30T13:00:39;24.70;91.90
3350;DHT22;1688;51.000;13.684;2022-08-30T13:03:31;24.50;93.70
3350;DHT22;1688;51.000;13.684;2022-08-30T13:05:57;24.10;95.10
3350;DHT22;1688;51.000;13.684;2022-08-30T13:08:36;23.40;96.30
3350;DHT22;1688;51.000;13.684;2022-08-30T13:11:23;22.90;97.30
3350;DHT22;1688;51.000;13.684;2022-08-30T13:14:18;22.70;98.50
3350;DHT22;1688;51.000;13.684;2022-08-30T13:16:40;22.60;98.70
3350;DHT22;1688;51.000;13.684;2022-08-30T13:21:57;22.10;99.80
3350;DHT22;1688;51.000;13.684;2022-08-30T13:24:23;22.00;99.90
3350;DHT22;1688;51.000;13.684;2022-08-30T13:26:49;22.00;99.90
3350;DHT22;1688;51.000;13.684;2022-08-30T13:29:18;22.10;99.90
3350;DHT22;1688;51.000;13.684;2022-08-30T13:31:44;22.40;99.90
3350;DHT22;1688;51.000;13.684;2022-08-30T13:34:10;22.50;99.90
3350;DHT22;1688;51.000;13.684;2022-08-30T13:36:41;22.50;99.90
3350;DHT22;1688;51.000;13.684;2022-08-30T13:39:08;22.50;99.50
3350;DHT22;1688;51.000;13.684;2022-08-30T13:41:34;22.70;99.90
3350;DHT22;1688;51.000;13.684;2022-08-30T13:43:59;22.80;99.80
3350;DHT22;1688;51.000;13.684;2022-08-30T13:46:25;22.80;99.90
3350;DHT22;1688;51.000;13.684;2022-08-30T13:49:03;22.90;99.90
3350;DHT22;1688;51.000;13.684;2022-08-30T13:51:29;23.10;99.20
3350;DHT22;1688;51.000;13.684;2022-08-30T13:53:55;23.20;99.60
3350;DHT22;1688;51.000;13.684;2022-08-30T13:56:21;23.20;99.60
3350;DHT22;1688;51.000;13.684;2022-08-30T13:58:48;23.20;99.40
3350;DHT22;1688;51.000;13.684;2022-08-30T14:01:14;23.10;99.50
3350;DHT22;1688;51.000;13.684;2022-08-30T14:03:40;23.10;99.50
3350;DHT22;1688;51.000;13.684;2022-08-30T14:06:07;23.30;99.30
3350;DHT22;1688;51.000;13.684;2022-08-30T14:08:32;23.40;98.80
3350;DHT22;1688;51.000;13.684;2022-08-30T14:11:02;23.70;98.50
3350;DHT22;1688;51.000;13.684;2022-08-30T14:13:28;23.70;97.70
3350;DHT22;1688;51.000;13.684;2022-08-30T14:15:55;23.50;97.70
3350;DHT22;1688;51.000;13.684;2022-08-30T14:18:22;23.50;98.30
3350;DHT22;1688;51.000;13.684;2022-08-30T14:20:50;23.50;97.90
3350;DHT22;1688;51.000;13.684;2022-08-30T14:23:16;23.30;97.50
3350;DHT22;1688;51.000;13.684;2022-08-30T14:25:41;23.10;98.10
3350;DHT22;1688;51.000;13.684;2022-08-30T14:28:08;23.00;98.00
3350;DHT22;1688;51.000;13.684;2022-08-30T14:30:33;23.00;98.50
3350;DHT22;1688;51.000;13.684;2022-08-30T14:33:00;23.10;97.80
3350;DHT22;1688;51.000;13.684;2022-08-30T14:35:26;23.20;97.40
3350;DHT22;1688;51.000;13.684;2022-08-30T14:37:51;23.30;97.40
3350;DHT22;1688;51.000;13.684;2022-08-30T14:40:17;23.10;97.60
3350;DHT22;1688;51.000;13.684;2022-08-30T14:42:43;23.10;97.40
3350;DHT22;1688;51.000;13.684;2022-08-30T14:45:09;23.20;97.00
3350;DHT22;1688;51.000;13.684;2022-08-30T14:47:35;23.00;97.40
3350;DHT22;1688;51.000;13.684;2022-08-30T14:50:01;22.90;97.60
3350;DHT22;1688;51.000;13.684;2022-08-30T14:52:28;22.90;96.90
3350;DHT22;1688;51.000;13.684;2022-08-30T14:54:54;22.80;97.00
3350;DHT22;1688;51.000;13.684;2022-08-30T14:57:20;22.70;97.20
3350;DHT22;1688;51.000;13.684;2022-08-30T14:59:46;22.70;97.30
3350;DHT22;1688;51.000;13.684;2022-08-30T15:02:12;22.70;97.10
3350;DHT22;1688;51.000;13.684;2022-08-30T15:04:38;22.90;96.30
3350;DHT22;1688;51.000;13.684;2022-08-30T15:07:04;23.00;97.10
3350;DHT22;1688;51.000;13.684;2022-08-30T15:09:29;22.90;96.50
3350;DHT22;1688;51.000;13.684;2022-08-30T15:11:58;22.80;96.20
3350;DHT22;1688;51.000;13.684;2022-08-30T15:14:26;22.80;96.40
3350;DHT22;1688;51.000;13.684;2022-08-30T15:16:53;22.90;96.50
3350;DHT22;1688;51.000;13.684;2022-08-30T15:19:19;22.80;95.80
3350;DHT22;1688;51.000;13.684;2022-08-30T15:21:46;22.70;96.20
3350;DHT22;1688;51.000;13.684;2022-08-30T15:24:19;22.60;97.10
3350;DHT22;1688;51.000;13.684;2022-08-30T15:26:45;22.50;96.80
3350;DHT22;1688;51.000;13.684;2022-08-30T15:29:14;22.50;96.60
3350;DHT22;1688;51.000;13.684;2022-08-30T15:31:41;22.50;96.50
3350;DHT22;1688;51.000;13.684;2022-08-30T15:34:08;22.50;96.80
3350;DHT22;1688;51.000;13.684;2022-08-30T15:36:34;22.50;96.80
3350;DHT22;1688;51.000;13.684;2022-08-30T15:39:01;22.50;96.80
3350;DHT22;1688;51.000;13.684;2022-08-30T15:41:28;22.40;97.20
3350;DHT22;1688;51.000;13.684;2022-08-30T15:43:55;22.50;96.90
3350;DHT22;1688;51.000;13.684;2022-08-30T15:46:23;22.60;96.40
3350;DHT22;1688;51.000;13.684;2022-08-30T15:48:51;22.50;96.00
3350;DHT22;1688;51.000;13.684;2022-08-30T15:51:18;22.40;96.10
3350;DHT22;1688;51.000;13.684;2022-08-30T15:53:44;22.30;96.50
3350;DHT22;1688;51.000;13.684;2022-08-30T15:56:11;22.30;96.30
3350;DHT22;1688;51.000;13.684;2022-08-30T15:58:38;22.10;96.90
3350;DHT22;1688;51.000;13.684;2022-08-30T16:01:04;22.10;97.30
3350;DHT22;1688;51.000;13.684;2022-08-30T16:03:31;22.10;97.40
3350;DHT22;1688;51.000;13.684;2022-08-30T16:05:58;22.00;97.60
3350;DHT22;1688;51.000;13.684;2022-08-30T16:08:30;21.90;98.60
3350;DHT22;1688;51.000;13.684;2022-08-30T16:10:56;21.90;99.30
3350;DHT22;1688;51.000;13.684;2022-08-30T16:13:22;22.00;99.60
3350;DHT22;1688;51.000;13.684;2022-08-30T16:15:48;21.80;99.90
3350;DHT22;1688;51.000;13.684;2022-08-30T16:18:14;21.70;99.90
3350;DHT22;1688;51.000;13.684;2022-08-30T16:20:42;21.70;99.90
3350;DHT22;1688;51.000;13.684;2022-08-30T16:23:09;21.60;99.90
3350;DHT22;1688;51.000;13.684;2022-08-30T16:25:36;21.60;99.90
3350;DHT22;1688;51.000;13.684;2022-08-30T16:28:02;21.50;99.90
3350;DHT22;1688;51.000;13.684;2022-08-30T16:30:29;21.30;99.90
3350;DHT22;1688;51.000;13.684;2022-08-30T16:32:55;21.30;99.90
3350;DHT22;1688;51.000;13.684;2022-08-30T16:35:21;21.20;99.90
3350;DHT22;1688;51.000;13.684;2022-08-30T16:37:46;21.20;99.90
3350;DHT22;1688;51.000;13.684;2022-08-30T16:40:16;21.30;99.90
3350;DHT22;1688;51.000;13.684;2022-08-30T16:42:42;21.30;99.90
3350;DHT22;1688;51.000;13.684;2022-08-30T16:45:08;21.40;99.90
3350;DHT22;1688;51.000;13.684;2022-08-30T16:47:34;21.50;99.90
3350;DHT22;1688;51.000;13.684;2022-08-30T16:49:59;21.50;99.90
3350;DHT22;1688;51.000;13.684;2022-08-30T16:52:25;21.30;99.90
3350;DHT22;1688;51.000;13.684;2022-08-30T16:54:51;21.20;99.90
3350;DHT22;1688;51.000;13.684;2022-08-30T16:57:17;21.20;99.90
3350;DHT22;1688;51.000;13.684;2022-08-30T16:59:43;21.10;99.90
3350;DHT22;1688;51.000;13.684;2022-08-30T17:02:09;20.50;99.90
3350;DHT22;1688;51.000;13.684;2022-08-30T17:04:35;21.00;99.90
3350;DHT22;1688;51.000;13.684;2022-08-30T17:07:04;21.00;99.90
3350;DHT22;1688;51.000;13.684;2022-08-30T17:09:30;20.90;99.90
3350;DHT22;1688;51.000;13.684;2022-08-30T17:11:55;20.80;99.90
3350;DHT22;1688;51.000;13.684;2022-08-30T17:14:22;20.70;99.90
3350;DHT22;1688;51.000;13.684;2022-08-30T17:16:47;20.80;99.90
3350;DHT22;1688;51.000;13.684;2022-08-30T17:19:13;20.70;99.90
3350;DHT22;1688;51.000;13.684;2022-08-30T17:21:39;20.70;99.90
3350;DHT22;1688;51.000;13.684;2022-08-30T17:24:05;20.60;99.90